Desert Oasis — SVBM8 — position and weather

sailwx.info

Track history (hours):
 
Tides and Currents Weather Stations Pressure Air Temp Water Temp Dewpoint Dewpoint Depression Visibility Wind Speed Wind Dir Waves Ship Positions

Desert Oasis

Last reported at 2017-Nov-12 05:31 UTC. Time now 2017-Nov-22 09:18 UTC.
Position S 28°21' W 045°57'.
Warning: this ship's position is 10 days out of date.

Length 193 m; draft 13.1 m.

Type: Cargo ship. MMSI: 241183000.

Date/timePositionNaut miles runAvg speedWind from/ knotsBaromVisibWave heightAir tempDewpointWater temp
2017-Nov-12 05:31S 28°21' W 045°57'612.6
2017-Nov-12 05:00S 28°15' W 045°53'612.8
2017-Nov-12 04:30S 28°10' W 045°49'612.9
2017-Nov-12 04:00S 28°04' W 045°45'612.8
2017-Nov-12 03:30S 27°59' W 045°41'612.8
2017-Nov-12 03:00S 27°54' W 045°37'612.9
2017-Nov-12 02:31S 27°48' W 045°33'1112.9
2017-Nov-12 01:37S 27°39' W 045°26'212.8
2017-Nov-12 01:29S 27°37' W 045°25'812.7
2017-Nov-12 00:49S 27°30' W 045°20'2312.7
2017-Nov-11 22:59S 27°10' W 045°06'612.8
2017-Nov-11 22:29S 27°05' W 045°03'  
Track history (hours):
 
Tides and Currents Weather Stations Pressure Air Temp Water Temp Dewpoint Dewpoint Depression Visibility Wind Speed Wind Dir Waves Ship Positions

Desert Oasis

Last reported at 2017-Nov-12 05:31 UTC. Time now 2017-Nov-22 09:18 UTC.
Position S 28°21' W 045°57'.
Warning: this ship's position is 10 days out of date.

Length 193 m; draft 13.1 m.

Type: Cargo ship. MMSI: 241183000.

Date/timePositionNaut miles runAvg speedWind from/ knotsBaromVisibWave heightAir tempDewpointWater temp
2017-Nov-12 05:31S 28°21' W 045°57'612.6
2017-Nov-12 05:00S 28°15' W 045°53'612.8
2017-Nov-12 04:30S 28°10' W 045°49'612.9
2017-Nov-12 04:00S 28°04' W 045°45'612.8
2017-Nov-12 03:30S 27°59' W 045°41'612.8
2017-Nov-12 03:00S 27°54' W 045°37'612.9
2017-Nov-12 02:31S 27°48' W 045°33'1112.9
2017-Nov-12 01:37S 27°39' W 045°26'212.8
2017-Nov-12 01:29S 27°37' W 045°25'812.7
2017-Nov-12 00:49S 27°30' W 045°20'2312.7
2017-Nov-11 22:59S 27°10' W 045°06'612.8
2017-Nov-11 22:29S 27°05' W 045°03'  

Dump ship's entire track history